Time;durP1;ratioP1;P1;durP2;ratioP2;P2;SDS_P1;SDS_P2;PMS_P1;PMS_P2;Temp;Humidity;BMP_temperature;BMP_pressure;BME280_temperature;BME280_humidity;BME280_pressure;Samples;Min_cycle;Max_cycle;Signal;HPM_P1;HPM_P2
2022/12/01 00:00:22;;;;;;;57.30;26.70;;;;;;;4.31;100.00;101860.41;5056598;28;20223;-73
2022/12/01 00:02:49;;;;;;;59.43;28.30;;;;;;;4.30;100.00;101855.19;5053886;28;20237;-72
2022/12/01 00:05:16;;;;;;;55.60;29.07;;;;;;;4.29;100.00;101864.00;5053289;28;20694;-73
2022/12/01 00:07:43;;;;;;;54.47;26.93;;;;;;;4.26;100.00;101851.72;5046775;28;20703;-73
2022/12/01 00:10:25;;;;;;;57.47;27.63;;;;;;;4.27;100.00;101852.59;5046494;28;20228;-73
2022/12/01 00:12:52;;;;;;;51.40;27.80;;;;;;;4.25;100.00;101854.38;5042552;28;20597;-73
2022/12/01 00:15:19;;;;;;;56.07;28.40;;;;;;;4.24;100.00;101850.00;5047660;28;20289;-74
2022/12/01 00:17:46;;;;;;;58.03;28.77;;;;;;;4.22;100.00;101857.06;5047493;28;20212;-73
2022/12/01 00:20:13;;;;;;;62.27;29.47;;;;;;;4.21;100.00;101855.34;5041158;28;20292;-74
2022/12/01 00:22:43;;;;;;;58.40;28.30;;;;;;;4.21;100.00;101858.84;5042339;28;20221;-73
2022/12/01 00:25:10;;;;;;;57.60;28.17;;;;;;;4.20;100.00;101865.00;5046876;28;20220;-72
2022/12/01 00:27:36;;;;;;;56.57;28.17;;;;;;;4.20;100.00;101859.75;5040087;28;20236;-72
2022/12/01 00:30:04;;;;;;;53.23;28.60;;;;;;;4.20;100.00;101862.38;5037969;28;20717;-72
2022/12/01 00:32:31;;;;;;;59.07;29.40;;;;;;;4.19;100.00;101858.00;5043883;28;20244;-72
2022/12/01 00:34:57;;;;;;;53.30;27.67;;;;;;;4.18;100.00;101854.50;5048259;28;20201;-72
2022/12/01 00:37:23;;;;;;;56.33;27.47;;;;;;;4.19;100.00;101863.28;5042772;28;20202;-72
2022/12/01 00:39:51;;;;;;;59.53;28.60;;;;;;;4.17;100.00;101858.03;5043424;28;20229;-72
2022/12/01 00:42:19;;;;;;;56.73;29.03;;;;;;;4.18;100.00;101858.88;5035989;28;20230;-72
2022/12/01 00:44:46;;;;;;;57.70;28.60;;;;;;;4.16;100.00;101864.19;5047475;28;20206;-72
2022/12/01 00:47:12;;;;;;;63.53;28.57;;;;;;;4.15;100.00;101859.81;5048735;28;20206;-72
2022/12/01 00:49:39;;;;;;;57.83;30.27;;;;;;;4.13;100.00;101858.97;5054351;28;20699;-72
2022/12/01 00:52:05;;;;;;;62.57;30.30;;;;;;;4.13;100.00;101868.63;5040089;28;20202;-73
2022/12/01 00:54:32;;;;;;;59.13;28.97;;;;;;;4.12;100.00;101874.84;5037987;28;20202;-73
2022/12/01 00:57:00;;;;;;;59.37;29.33;;;;;;;4.09;100.00;101874.88;5039666;28;20378;-73
2022/12/01 00:59:26;;;;;;;66.53;31.13;;;;;;;4.07;100.00;101880.19;5041586;28;20730;-73
2022/12/01 01:01:53;;;;;;;67.80;33.17;;;;;;;4.04;100.00;101872.31;5039255;28;20583;-73
2022/12/01 01:04:20;;;;;;;73.30;34.70;;;;;;;4.02;100.00;101878.50;5041381;28;20225;-73
2022/12/01 01:06:46;;;;;;;74.00;34.03;;;;;;;3.97;100.00;101883.84;5044373;28;20205;-73
2022/12/01 01:09:14;;;;;;;81.60;35.63;;;;;;;3.95;100.00;101882.13;5047477;28;20206;-72
2022/12/01 01:11:40;;;;;;;82.17;37.10;;;;;;;3.93;100.00;101881.31;5046414;28;20997;-73
2022/12/01 01:14:08;;;;;;;84.93;38.23;;;;;;;3.90;99.81;101890.13;5036199;28;20226;-73
2022/12/01 01:16:35;;;;;;;89.87;39.63;;;;;;;3.88;100.00;101885.78;5045884;28;20202;-73
2022/12/01 01:19:01;;;;;;;90.53;39.63;;;;;;;3.88;100.00;101894.56;5048010;28;20206;-73
2022/12/01 01:21:28;;;;;;;95.00;42.30;;;;;;;3.87;100.00;101887.53;5041982;28;20198;-73
2022/12/01 01:23:55;;;;;;;89.73;40.33;;;;;;;3.88;100.00;101888.41;5048075;28;20226;-73
2022/12/01 01:26:23;;;;;;;88.40;39.57;;;;;;;3.86;100.00;101888.44;5046950;28;20208;-73
2022/12/01 01:28:51;;;;;;;96.53;40.03;;;;;;;3.86;99.89;101890.19;5047111;28;20678;-73
2022/12/01 01:31:20;;;;;;;95.17;39.73;;;;;;;3.84;100.00;101890.22;5044336;28;20232;-73
2022/12/01 01:33:47;;;;;;;88.97;39.07;;;;;;;3.82;100.00;101899.91;5044710;28;20695;-73
2022/12/01 01:36:15;;;;;;;92.03;38.57;;;;;;;3.80;100.00;101894.66;5047367;28;20282;-73
2022/12/01 01:38:41;;;;;;;88.13;38.77;;;;;;;3.78;100.00;101892.94;5039160;28;20627;-73
2022/12/01 01:41:08;;;;;;;89.00;37.40;;;;;;;3.77;99.33;101897.34;5046009;28;20197;-73
2022/12/01 01:43:44;;;;;;;96.07;39.13;;;;;;;3.72;99.65;101898.31;5046083;28;20221;-73
2022/12/01 01:46:12;;;;;;;101.07;40.90;;;;;;;3.68;99.71;101908.03;5036789;28;20208;-73
2022/12/01 01:48:43;;;;;;;105.43;40.63;;;;;;;3.66;99.71;101906.31;5045474;28;20549;-73
2022/12/01 01:51:12;;;;;;;102.40;41.63;;;;;;;3.61;99.60;101898.47;5043479;28;20225;-73
2022/12/01 01:53:39;;;;;;;106.63;43.60;;;;;;;3.59;98.81;101899.38;5045712;28;20229;-73
2022/12/01 01:56:07;;;;;;;103.80;43.07;;;;;;;3.54;99.14;101896.84;5043203;28;20202;-73
2022/12/01 01:58:34;;;;;;;106.03;41.80;;;;;;;3.52;98.87;101903.00;5050180;28;20206;-73
2022/12/01 02:01:01;;;;;;;111.93;42.20;;;;;;;3.47;99.13;101893.41;5042471;28;20216;-73
2022/12/01 02:03:29;;;;;;;105.37;41.60;;;;;;;3.42;98.58;101902.25;5048901;28;20217;-73
2022/12/01 02:05:57;;;;;;;112.10;41.07;;;;;;;3.37;98.60;101902.34;5044867;28;20288;-73
2022/12/01 02:08:24;;;;;;;112.37;41.70;;;;;;;3.32;98.76;101903.28;5044304;28;20202;-72
2022/12/01 02:11:05;;;;;;;106.37;41.37;;;;;;;3.27;98.32;101900.72;5045641;28;20230;-73
2022/12/01 02:13:35;;;;;;;111.27;40.90;;;;;;;3.23;98.98;101899.00;5046301;28;20351;-73
2022/12/01 02:16:12;;;;;;;106.57;40.27;;;;;;;3.20;99.33;101903.47;5046665;28;20205;-72
2022/12/01 02:18:47;;;;;;;103.83;40.17;;;;;;;3.15;98.42;101906.16;5042879;28;20663;-72
2022/12/01 02:21:36;;;;;;;103.80;39.37;;;;;;;3.12;99.13;101906.19;5041708;28;20447;-73
2022/12/01 02:24:43;;;;;;;102.53;39.20;;;;;;;3.08;98.68;101913.22;5041007;28;20607;-73
2022/12/01 02:27:23;;;;;;;114.40;38.73;;;;;;;3.05;98.97;101904.50;5039672;28;20212;-73
2022/12/01 02:30:06;;;;;;;108.20;40.17;;;;;;;3.02;98.75;101907.19;5039504;28;20721;-73
2022/12/01 02:32:45;;;;;;;98.17;39.03;;;;;;;2.98;99.48;101905.50;5042593;28;20232;-73
2022/12/01 02:35:16;;;;;;;103.67;40.53;;;;;;;2.96;99.59;101909.91;5044144;28;20675;-73
2022/12/01 02:37:49;;;;;;;114.07;40.77;;;;;;;2.94;98.97;101909.91;5039794;28;20203;-73
2022/12/01 02:40:23;;;;;;;117.00;41.13;;;;;;;2.94;99.91;101907.28;5044389;28;20577;-73
2022/12/01 02:43:01;;;;;;;115.93;41.80;;;;;;;2.93;99.14;101913.44;5050246;28;20232;-73
2022/12/01 02:45:36;;;;;;;111.07;41.10;;;;;;;2.92;100.00;101916.06;5045046;28;20209;-73
2022/12/01 02:48:08;;;;;;;111.50;41.03;;;;;;;2.90;100.00;101909.94;5043029;28;20571;-73
2022/12/01 02:50:37;;;;;;;110.10;39.77;;;;;;;2.91;99.36;101906.44;5044024;28;20229;-73
2022/12/01 02:53:07;;;;;;;107.10;40.30;;;;;;;2.93;99.96;101912.56;5040335;28;20232;-73
2022/12/01 02:55:33;;;;;;;115.03;42.23;;;;;;;2.93;100.00;101910.78;5044433;28;20199;-72
2022/12/01 02:58:00;;;;;;;110.70;40.97;;;;;;;2.92;100.00;101913.44;5039736;28;20204;-73
2022/12/01 03:00:27;;;;;;;115.53;41.47;;;;;;;2.90;99.55;101910.81;5049411;28;20202;-73
2022/12/01 03:03:24;;;;;;;112.57;40.60;;;;;;;2.90;99.71;101920.47;5050222;28;20591;-72
2022/12/01 03:06:00;;;;;;;116.17;40.63;;;;;;;2.89;100.00;101916.97;5043093;28;20206;-72
2022/12/01 03:08:32;;;;;;;105.97;38.97;;;;;;;2.89;100.00;101921.38;5044090;28;20247;-73
2022/12/01 03:11:00;;;;;;;103.77;36.50;;;;;;;2.87;100.00;101915.25;5047613;28;20437;-73
2022/12/01 03:13:35;;;;;;;95.83;35.97;;;;;;;2.86;99.83;101917.03;5043699;28;20530;-73
2022/12/01 03:16:07;;;;;;;90.53;33.57;;;;;;;2.84;99.60;101915.31;5049572;28;20208;-72
2022/12/01 03:18:38;;;;;;;88.20;35.40;;;;;;;2.82;99.74;101906.56;5049506;28;20202;-72
2022/12/01 03:21:10;;;;;;;94.40;35.23;;;;;;;2.79;99.91;101913.59;5046303;28;20247;-73
2022/12/01 03:23:40;;;;;;;84.30;32.03;;;;;;;2.78;99.34;101916.25;5050947;28;20256;-73
2022/12/01 03:26:11;;;;;;;82.13;32.80;;;;;;;2.76;99.35;101912.75;5041414;28;20221;-73
2022/12/01 03:28:43;;;;;;;81.33;30.07;;;;;;;2.71;99.64;101915.41;5045509;28;20238;-73
2022/12/01 03:31:15;;;;;;;84.70;32.87;;;;;;;2.70;99.94;101915.44;5044202;28;20229;-72
2022/12/01 03:33:49;;;;;;;84.00;32.30;;;;;;;2.66;99.73;101919.88;5048532;28;20714;-72
2022/12/01 03:36:21;;;;;;;90.63;32.73;;;;;;;2.64;99.83;101921.66;5048118;28;20290;-73
2022/12/01 03:38:52;;;;;;;87.00;33.30;;;;;;;2.61;98.81;101913.78;5047495;28;20208;-72
2022/12/01 03:41:25;;;;;;;91.33;32.63;;;;;;;2.59;99.10;101914.69;5043077;28;20205;-73
2022/12/01 03:43:55;;;;;;;86.70;33.90;;;;;;;2.55;99.61;101919.09;5049747;28;20609;-73
2022/12/01 03:46:28;;;;;;;89.07;33.80;;;;;;;2.53;98.70;101915.63;5046462;28;20225;-73
2022/12/01 03:48:56;;;;;;;85.13;30.70;;;;;;;2.53;98.71;101914.75;5048838;28;20210;-72
2022/12/01 03:51:31;;;;;;;105.90;36.90;;;;;;;2.52;99.15;101918.25;5050096;28;20229;-72
2022/12/01 03:54:03;;;;;;;98.40;35.30;;;;;;;2.51;99.82;101925.28;5061575;22;20260;-75
2022/12/01 03:56:34;;;;;;;97.47;35.00;;;;;;;2.51;98.93;101924.44;5047996;28;20201;-76
2022/12/01 03:59:03;;;;;;;104.87;37.60;;;;;;;2.50;99.53;101926.19;5047197;28;20775;-74
2022/12/01 04:01:31;;;;;;;93.03;34.57;;;;;;;2.52;99.89;101924.38;5040253;28;20652;-73
2022/12/01 04:04:04;;;;;;;96.70;34.80;;;;;;;2.52;99.53;101919.13;5038922;28;20226;-74
2022/12/01 04:06:31;;;;;;;97.50;36.73;;;;;;;2.51;99.54;101930.53;5024165;28;20230;-74
2022/12/01 04:08:57;;;;;;;93.33;34.77;;;;;;;2.51;99.82;101929.69;5032150;28;20209;-74
2022/12/01 04:14:08;;;;;;;93.87;34.50;;;;;;;2.51;99.16;101938.41;5033462;28;20236;-74
2022/12/01 04:16:34;;;;;;;102.73;36.03;;;;;;;2.50;99.21;101930.56;5029054;28;20207;-74
2022/12/01 04:19:02;;;;;;;96.43;34.77;;;;;;;2.47;99.84;101931.47;5036235;28;20214;-74
2022/12/01 04:21:28;;;;;;;106.37;36.40;;;;;;;2.48;99.25;101921.81;5027375;28;20202;-74
2022/12/01 04:24:01;;;;;;;92.03;32.80;;;;;;;2.46;99.59;101926.22;5024296;28;20226;-74
2022/12/01 04:26:28;;;;;;;88.70;31.73;;;;;;;2.45;99.85;101927.97;5025442;28;20194;-74
2022/12/01 04:28:54;;;;;;;94.67;33.83;;;;;;;2.43;99.78;101924.50;5026365;28;20785;-72
2022/12/01 04:31:21;;;;;;;89.00;32.87;;;;;;;2.42;99.42;101920.13;5020771;28;20833;-72
2022/12/01 04:33:48;;;;;;;92.27;32.17;;;;;;;2.40;98.94;101928.03;5033999;28;20245;-74
2022/12/01 04:36:15;;;;;;;91.47;33.33;;;;;;;2.39;98.88;101922.78;5031587;28;20372;-74
2022/12/01 04:38:42;;;;;;;84.23;31.30;;;;;;;2.41;99.52;101931.53;5030722;28;20199;-74
2022/12/01 04:41:09;;;;;;;88.27;32.10;;;;;;;2.40;99.34;101925.38;5028128;28;20205;-74
2022/12/01 04:43:36;;;;;;;103.77;34.70;;;;;;;2.41;99.27;101935.03;5033260;28;20252;-73
2022/12/01 04:46:03;;;;;;;93.50;34.37;;;;;;;2.42;99.80;101933.25;5018671;28;20222;-75
2022/12/01 04:48:30;;;;;;;89.77;31.67;;;;;;;2.41;98.88;101931.53;5019766;28;20210;-74
2022/12/01 04:50:56;;;;;;;86.87;32.70;;;;;;;2.38;98.89;101929.78;5026593;28;20349;-74
2022/12/01 04:53:24;;;;;;;97.93;35.00;;;;;;;2.38;99.56;101931.53;5020778;28;20231;-74
2022/12/01 04:55:50;;;;;;;92.43;33.90;;;;;;;2.36;99.10;101931.56;5021258;28;20203;-73
2022/12/01 04:58:17;;;;;;;92.53;33.23;;;;;;;2.35;99.08;101932.44;5022190;28;20213;-73
2022/12/01 05:00:43;;;;;;;91.90;34.93;;;;;;;2.35;98.50;101937.69;5014211;28;21766;-74
2022/12/01 05:03:10;;;;;;;87.93;32.90;;;;;;;2.35;99.17;101935.06;5025449;28;20228;-75
2022/12/01 05:05:37;;;;;;;82.17;31.43;;;;;;;2.34;99.09;101932.44;5031052;28;20202;-74
2022/12/01 05:08:03;;;;;;;86.93;32.80;;;;;;;2.33;98.59;101938.63;5035455;28;20207;-76
2022/12/01 05:10:31;;;;;;;89.63;32.87;;;;;;;2.32;98.68;101945.63;5020836;28;20210;-74
2022/12/01 05:12:59;;;;;;;80.03;30.53;;;;;;;2.34;98.98;101950.84;5023394;28;20222;-74
2022/12/01 05:15:25;;;;;;;78.80;30.87;;;;;;;2.31;99.12;101949.16;5019148;28;20229;-72
2022/12/01 05:17:51;;;;;;;82.03;30.83;;;;;;;2.34;98.58;101950.84;5018551;28;20206;-74
2022/12/01 05:23:01;;;;;;;86.97;32.83;;;;;;;2.35;99.21;101957.84;4995865;28;20331;-75
2022/12/01 05:25:28;;;;;;;83.13;31.23;;;;;;;2.35;98.32;101952.59;5011230;28;20219;-75
2022/12/01 05:27:55;;;;;;;95.00;33.10;;;;;;;2.34;99.26;101953.47;5025964;28;20210;-74
2022/12/01 05:30:22;;;;;;;86.13;32.87;;;;;;;2.34;98.77;101951.72;5023617;28;20230;-75
2022/12/01 05:32:48;;;;;;;88.40;33.27;;;;;;;2.35;98.47;101961.34;5024528;28;20242;-75
2022/12/01 05:35:15;;;;;;;78.47;30.40;;;;;;;2.36;99.16;101956.97;5025835;28;20213;-74
2022/12/01 05:37:41;;;;;;;85.33;32.17;;;;;;;2.37;98.34;101964.84;5027775;28;20213;-74
2022/12/01 05:40:09;;;;;;;80.87;28.87;;;;;;;2.39;99.31;101962.22;5021965;28;20207;-74
2022/12/01 05:42:35;;;;;;;81.67;31.00;;;;;;;2.39;98.83;101964.84;5013333;28;20194;-74
2022/12/01 05:45:04;;;;;;;85.17;30.47;;;;;;;2.38;98.89;101963.97;5018307;28;20199;-74
2022/12/01 05:47:30;;;;;;;78.40;28.00;;;;;;;2.37;98.74;101963.97;5013348;28;20210;-74
2022/12/01 05:49:56;;;;;;;82.27;31.20;;;;;;;2.36;98.30;101970.13;5021784;28;20229;-73
2022/12/01 05:52:23;;;;;;;78.70;30.07;;;;;;;2.35;99.11;101965.75;5015763;28;20225;-74
2022/12/01 05:54:49;;;;;;;92.53;32.43;;;;;;;2.35;98.62;101973.63;5016784;28;20217;-73
2022/12/01 05:57:16;;;;;;;82.90;31.83;;;;;;;2.34;98.58;101972.75;5023584;28;20233;-74
2022/12/01 05:59:42;;;;;;;83.43;31.20;;;;;;;2.32;98.95;101965.78;5020485;28;20222;-74
2022/12/01 06:02:10;;;;;;;88.53;33.83;;;;;;;2.31;98.57;101969.31;5022701;28;20209;-74
2022/12/01 06:04:36;;;;;;;77.13;29.67;;;;;;;2.30;98.56;101965.81;5015944;28;20822;-73
2022/12/01 06:07:03;;;;;;;91.33;33.70;;;;;;;2.31;98.06;101971.94;5015957;28;20213;-74
2022/12/01 06:09:30;;;;;;;88.63;31.47;;;;;;;2.31;98.78;101972.81;5028303;28;20565;-74
2022/12/01 06:11:56;;;;;;;90.83;32.83;;;;;;;2.33;98.53;101972.81;5021034;28;20382;-73
2022/12/01 06:14:23;;;;;;;95.50;33.40;;;;;;;2.32;97.93;101977.19;5021903;28;20222;-74
2022/12/01 06:16:49;;;;;;;84.13;31.47;;;;;;;2.34;98.25;101987.66;5022901;28;20210;-74
2022/12/01 06:19:17;;;;;;;81.13;30.70;;;;;;;2.34;98.58;101978.00;5016349;28;20210;-73
2022/12/01 06:21:43;;;;;;;81.67;28.87;;;;;;;2.34;98.76;101992.91;5021565;28;20205;-74
2022/12/01 06:24:10;;;;;;;78.97;29.60;;;;;;;2.32;97.95;101984.19;5022984;28;20233;-74
2022/12/01 06:26:36;;;;;;;79.53;31.03;;;;;;;2.33;98.28;101988.56;5022958;28;20199;-74
2022/12/01 06:29:03;;;;;;;83.93;30.43;;;;;;;2.31;98.47;101998.22;5021859;28;20203;-73
2022/12/01 06:31:30;;;;;;;86.13;30.20;;;;;;;2.35;98.47;101994.66;5028058;28;20225;-73
2022/12/01 06:33:56;;;;;;;81.90;30.67;;;;;;;2.34;98.89;102003.44;5026516;28;20223;-74
2022/12/01 06:36:24;;;;;;;85.60;30.57;;;;;;;2.34;98.52;102001.69;5040936;28;20206;-74
2022/12/01 06:38:50;;;;;;;81.33;30.40;;;;;;;2.36;98.36;102006.91;5030349;28;20202;-72
2022/12/01 06:41:17;;;;;;;87.20;30.93;;;;;;;2.37;98.10;102011.28;5028283;28;20206;-74
2022/12/01 06:43:43;;;;;;;75.40;30.30;;;;;;;2.37;98.69;102009.53;5032429;28;20229;-74
2022/12/01 06:46:09;;;;;;;83.27;30.60;;;;;;;2.38;97.85;102013.91;5035005;28;20664;-74
2022/12/01 06:48:36;;;;;;;90.97;32.13;;;;;;;2.39;98.73;102012.16;5036619;28;20209;-74
2022/12/01 06:51:03;;;;;;;86.93;30.53;;;;;;;2.40;98.49;102003.38;5039630;28;20210;-74
2022/12/01 06:53:31;;;;;;;82.80;30.63;;;;;;;2.41;98.41;102010.41;5039675;28;20233;-73
2022/12/01 06:55:59;;;;;;;82.60;29.73;;;;;;;2.40;98.11;102014.78;5037512;28;20577;-73
2022/12/01 06:58:26;;;;;;;87.03;29.87;;;;;;;2.42;98.16;102014.78;5040695;28;20249;-74
2022/12/01 07:00:52;;;;;;;80.53;29.97;;;;;;;2.43;98.64;102019.16;5037045;28;20217;-73
2022/12/01 07:03:19;;;;;;;79.87;30.10;;;;;;;2.44;98.30;102010.38;5043994;28;20587;-74
2022/12/01 07:05:54;;;;;;;80.00;29.07;;;;;;;2.46;98.24;102011.25;5034801;28;20202;-74
2022/12/01 07:08:21;;;;;;;71.63;26.97;;;;;;;2.45;98.29;102012.13;5034109;28;20205;-75
2022/12/01 07:10:57;;;;;;;81.37;28.83;;;;;;;2.42;97.80;102020.91;5039633;28;20198;-74
2022/12/01 07:13:24;;;;;;;75.07;28.53;;;;;;;2.39;97.84;102017.41;5032597;28;20234;-74
2022/12/01 07:15:50;;;;;;;67.67;27.23;;;;;;;2.37;97.35;102021.81;5027956;28;20237;-74
2022/12/01 07:18:17;;;;;;;69.73;27.57;;;;;;;2.36;97.69;102020.06;5021956;28;20210;-74
2022/12/01 07:20:43;;;;;;;73.93;28.73;;;;;;;2.34;97.20;102019.19;5023707;28;20203;-74
2022/12/01 07:23:10;;;;;;;64.20;27.40;;;;;;;2.33;97.89;102022.75;5021046;28;20223;-74
2022/12/01 07:25:36;;;;;;;69.97;26.73;;;;;;;2.31;97.12;102019.25;5022536;28;20199;-74
2022/12/01 07:28:04;;;;;;;65.60;26.73;;;;;;;2.31;97.89;102022.75;5025396;28;20668;-74
2022/12/01 07:30:31;;;;;;;77.90;27.63;;;;;;;2.33;98.02;102020.13;5023503;28;20199;-74
2022/12/01 07:32:57;;;;;;;66.63;28.30;;;;;;;2.34;97.36;102020.06;5023599;28;20241;-74
2022/12/01 07:35:24;;;;;;;74.87;28.33;;;;;;;2.36;98.14;102022.69;5022420;28;20211;-73
2022/12/01 07:37:54;;;;;;;73.50;26.87;;;;;;;2.37;97.61;102016.56;5024363;28;20237;-74
2022/12/01 07:40:21;;;;;;;73.83;27.80;;;;;;;2.38;97.28;102023.56;5025802;28;20210;-74
2022/12/01 07:42:47;;;;;;;82.13;29.57;;;;;;;2.38;97.53;102023.56;5023495;28;20219;-74
2022/12/01 07:45:15;;;;;;;70.90;28.63;;;;;;;2.38;97.06;102024.44;5034204;28;20213;-74
2022/12/01 07:47:43;;;;;;;80.63;28.77;;;;;;;2.40;97.17;102024.44;5022304;28;20207;-74
2022/12/01 07:50:10;;;;;;;74.97;28.13;;;;;;;2.40;97.09;102032.31;5026795;28;20222;-73
2022/12/01 07:52:36;;;;;;;76.27;28.93;;;;;;;2.39;97.65;102028.81;5028567;28;20313;-75
2022/12/01 07:55:03;;;;;;;76.87;26.93;;;;;;;2.38;97.35;102037.59;5020193;28;20202;-74
2022/12/01 07:57:29;;;;;;;77.17;26.93;;;;;;;2.38;97.59;102031.44;5037081;28;20205;-72
2022/12/01 07:59:56;;;;;;;77.23;28.03;;;;;;;2.37;96.70;102037.59;5037888;28;20572;-73
2022/12/01 08:02:23;;;;;;;85.87;28.30;;;;;;;2.38;97.16;102036.72;5036870;28;20702;-75
2022/12/01 08:04:50;;;;;;;72.00;28.03;;;;;;;2.37;97.05;102045.47;5037849;28;20203;-73
2022/12/01 08:07:16;;;;;;;75.63;28.67;;;;;;;2.37;96.86;102046.34;5025736;28;20209;-74
2022/12/01 08:09:43;;;;;;;83.67;29.10;;;;;;;2.37;97.37;102042.84;5035345;28;20210;-74
2022/12/01 08:12:10;;;;;;;83.23;30.03;;;;;;;2.38;97.74;102041.97;5039710;28;20232;-74
2022/12/01 08:14:36;;;;;;;72.87;26.60;;;;;;;2.39;97.87;102048.97;5033290;28;20317;-74
2022/12/01 08:17:03;;;;;;;83.00;29.23;;;;;;;2.40;97.67;102048.97;5031854;28;20203;-74
2022/12/01 08:19:30;;;;;;;73.00;27.37;;;;;;;2.41;97.39;102047.22;5031709;28;20217;-74
2022/12/01 08:21:57;;;;;;;84.03;29.87;;;;;;;2.42;97.83;102048.97;5022936;28;20209;-74
2022/12/01 08:24:24;;;;;;;80.63;29.30;;;;;;;2.41;97.02;102053.34;5039386;28;20591;-74
2022/12/01 08:26:51;;;;;;;93.73;30.43;;;;;;;2.42;97.81;102043.69;5046640;28;20259;-74
2022/12/01 08:29:17;;;;;;;87.20;31.40;;;;;;;2.42;96.95;102052.47;5036766;28;20201;-74
2022/12/01 08:31:43;;;;;;;91.57;31.80;;;;;;;2.42;97.65;102048.97;5040159;28;20564;-73
2022/12/01 08:34:10;;;;;;;95.40;32.00;;;;;;;2.43;97.72;102055.97;5031549;28;21752;-74
2022/12/01 08:36:38;;;;;;;95.00;30.70;;;;;;;2.43;97.71;102056.84;5040401;28;20197;-74
2022/12/01 08:39:04;;;;;;;100.13;32.03;;;;;;;2.43;97.34;102059.47;5028011;28;20206;-72
2022/12/01 08:41:31;;;;;;;96.17;32.93;;;;;;;2.43;97.72;102061.22;5031427;28;20206;-74
2022/12/01 08:43:58;;;;;;;101.87;32.67;;;;;;;2.45;97.49;102064.72;5031973;28;20227;-75
2022/12/01 08:46:25;;;;;;;106.03;34.23;;;;;;;2.43;97.56;102063.84;5042471;28;20202;-74
2022/12/01 08:48:53;;;;;;;103.60;33.17;;;;;;;2.40;96.79;102056.84;5034337;28;20462;-73
2022/12/01 08:51:20;;;;;;;92.03;32.13;;;;;;;2.40;96.83;102063.88;5031349;28;20224;-74
2022/12/01 08:53:49;;;;;;;104.37;34.13;;;;;;;2.40;97.63;102070.00;5038559;28;20308;-74
2022/12/01 08:56:19;;;;;;;89.73;31.17;;;;;;;2.40;97.42;102064.75;5039506;28;20209;-75
2022/12/01 08:58:46;;;;;;;103.67;33.93;;;;;;;2.40;97.30;102064.75;5035787;28;20194;-75
2022/12/01 09:01:14;;;;;;;94.20;32.07;;;;;;;2.40;97.09;102066.50;5037690;28;20600;-73
2022/12/01 09:03:41;;;;;;;105.03;32.73;;;;;;;2.39;97.56;102073.50;5037664;28;20238;-74
2022/12/01 09:06:09;;;;;;;98.10;32.33;;;;;;;2.39;97.61;102070.00;5042450;28;20209;-74
2022/12/01 09:08:37;;;;;;;107.97;32.83;;;;;;;2.40;98.06;102074.38;5034018;28;20210;-74
2022/12/01 09:11:07;;;;;;;104.20;34.17;;;;;;;2.42;97.45;102080.50;5038451;28;20212;-74
2022/12/01 09:13:35;;;;;;;99.43;32.03;;;;;;;2.42;97.83;102070.00;5028391;28;20230;-74
2022/12/01 09:16:04;;;;;;;96.57;32.77;;;;;;;2.43;97.46;102071.75;5027761;28;20202;-74
2022/12/01 09:18:31;;;;;;;95.30;32.23;;;;;;;2.43;98.24;102071.75;5029184;28;20202;-74
2022/12/01 09:20:58;;;;;;;98.40;33.77;;;;;;;2.44;97.79;102069.09;5029464;28;20202;-74
2022/12/01 09:23:25;;;;;;;104.17;32.90;;;;;;;2.46;98.05;102076.97;5028114;28;20240;-74
2022/12/01 09:25:53;;;;;;;102.30;31.40;;;;;;;2.47;97.80;102081.34;5030968;28;20213;-75
2022/12/01 09:28:20;;;;;;;102.47;32.50;;;;;;;2.49;97.69;102081.34;5029879;28;20218;-74
2022/12/01 09:30:47;;;;;;;95.23;32.70;;;;;;;2.50;98.63;102077.84;5028976;28;20206;-74
2022/12/01 09:33:14;;;;;;;105.03;33.83;;;;;;;2.51;97.79;102082.22;5031873;28;20722;-75
2022/12/01 09:35:40;;;;;;;102.73;31.13;;;;;;;2.50;98.68;102083.97;5036260;28;20210;-73
2022/12/01 09:38:07;;;;;;;102.90;30.87;;;;;;;2.49;98.66;102074.34;5030113;28;20696;-74
2022/12/01 09:40:36;;;;;;;102.80;31.30;;;;;;;2.48;98.03;102080.47;5029130;28;20691;-74
2022/12/01 09:43:06;;;;;;;101.03;32.00;;;;;;;2.50;98.57;102083.97;5038962;28;20707;-74
2022/12/01 09:45:39;;;;;;;110.03;34.37;;;;;;;2.50;97.90;102081.34;5023762;28;20209;-74
2022/12/01 09:48:10;;;;;;;113.90;35.00;;;;;;;2.51;97.75;102085.69;5034333;28;20210;-74
2022/12/01 09:50:37;;;;;;;109.23;34.57;;;;;;;2.51;98.31;102077.78;5036508;28;20194;-74
2022/12/01 09:53:07;;;;;;;109.90;34.27;;;;;;;2.50;98.34;102076.06;5064262;22;20241;-69
2022/12/01 09:55:35;;;;;;;101.77;32.97;;;;;;;2.50;98.38;102073.44;5043710;28;20213;-70
2022/12/01 09:58:04;;;;;;;108.80;34.07;;;;;;;2.51;97.57;102072.53;5042748;28;20212;-69
2022/12/01 10:00:36;;;;;;;102.03;32.77;;;;;;;2.52;98.59;102062.88;5042053;28;20208;-70
2022/12/01 10:03:19;;;;;;;101.40;34.00;;;;;;;2.52;98.23;102055.00;5044413;28;20293;-70
2022/12/01 10:05:48;;;;;;;105.93;33.57;;;;;;;2.51;98.42;102054.13;5027150;28;20206;-70
2022/12/01 10:08:18;;;;;;;105.13;33.70;;;;;;;2.51;97.68;102054.13;5027127;28;20202;-70
2022/12/01 10:10:47;;;;;;;111.40;34.23;;;;;;;2.52;98.49;102052.38;5027996;28;20572;-70
2022/12/01 10:13:17;;;;;;;103.23;33.70;;;;;;;2.52;98.30;102057.63;5025929;28;20715;-70
2022/12/01 10:15:56;;;;;;;107.93;33.53;;;;;;;2.54;98.39;102053.22;5022190;28;20199;-70
2022/12/01 10:18:35;;;;;;;101.33;32.70;;;;;;;2.52;97.67;102055.88;5027296;28;20209;-70
2022/12/01 10:21:07;;;;;;;95.57;31.37;;;;;;;2.52;98.32;102050.63;5024760;28;20208;-69
2022/12/01 10:23:44;;;;;;;84.03;28.37;;;;;;;2.51;97.99;102056.75;5026886;28;20225;-70
2022/12/01 10:26:15;;;;;;;97.33;31.27;;;;;;;2.50;97.78;102056.78;5026241;28;20209;-70
2022/12/01 10:28:53;;;;;;;105.40;33.90;;;;;;;2.52;98.00;102049.75;5026276;28;20221;-70
2022/12/01 10:31:26;;;;;;;102.73;32.47;;;;;;;2.53;97.87;102049.72;5027075;28;20737;-71
2022/12/01 10:34:00;;;;;;;88.73;32.10;;;;;;;2.55;97.80;102058.47;5027086;28;20249;-70
2022/12/01 10:36:28;;;;;;;103.30;32.63;;;;;;;2.58;97.94;102055.84;5024549;28;20201;-70
2022/12/01 10:38:54;;;;;;;96.50;33.03;;;;;;;2.60;98.45;102050.56;5026888;28;20221;-71
2022/12/01 10:41:23;;;;;;;101.77;32.33;;;;;;;2.62;98.70;102051.44;5027174;28;20487;-71
2022/12/01 10:43:53;;;;;;;98.60;32.07;;;;;;;2.64;98.32;102049.66;5027408;28;20218;-69
2022/12/01 10:46:25;;;;;;;93.87;31.03;;;;;;;2.64;98.41;102040.00;5026818;28;20224;-71
2022/12/01 10:48:54;;;;;;;104.90;33.80;;;;;;;2.66;98.51;102042.63;5020562;28;20210;-70
2022/12/01 10:51:21;;;;;;;96.37;33.87;;;;;;;2.67;98.32;102033.84;5020494;28;20292;-70
2022/12/01 10:53:48;;;;;;;98.40;31.33;;;;;;;2.69;98.65;102032.06;5019558;28;20230;-70
2022/12/01 10:56:18;;;;;;;96.87;32.40;;;;;;;2.71;98.28;102041.69;5022948;28;20209;-71
2022/12/01 10:58:48;;;;;;;104.00;32.50;;;;;;;2.73;97.82;102039.03;5025132;28;20213;-71
2022/12/01 11:01:18;;;;;;;100.23;32.17;;;;;;;2.75;97.91;102035.53;5021329;28;20221;-71
2022/12/01 11:03:50;;;;;;;92.93;31.10;;;;;;;2.77;98.28;102039.00;5023361;28;21202;-69
2022/12/01 11:06:22;;;;;;;85.73;29.60;;;;;;;2.80;98.35;102030.22;5018300;28;20206;-70
2022/12/01 11:08:52;;;;;;;81.10;30.40;;;;;;;2.82;98.71;102032.84;5019095;28;20218;-69
2022/12/01 11:11:29;;;;;;;81.83;30.07;;;;;;;2.84;97.65;102029.31;5024560;28;20241;-71
2022/12/01 11:13:57;;;;;;;90.03;31.07;;;;;;;2.86;98.20;102026.66;5022245;28;20315;-69
2022/12/01 11:16:40;;;;;;;89.23;30.33;;;;;;;2.87;98.28;102029.25;5028659;28;20357;-71
2022/12/01 11:19:19;;;;;;;88.70;30.30;;;;;;;2.92;98.61;102030.09;5026508;28;20202;-71
2022/12/01 11:21:49;;;;;;;75.87;29.67;;;;;;;2.97;98.28;102022.16;5026007;28;20202;-71
2022/12/01 11:24:28;;;;;;;80.57;29.73;;;;;;;3.02;97.62;102023.00;5027579;28;20221;-70
2022/12/01 11:26:56;;;;;;;87.07;30.40;;;;;;;3.04;97.94;102018.59;5024890;28;20222;-71